createdAt,value
2022-08-14T00:02:27.125Z,101189.00
2022-08-14T00:04:55.429Z,101188.38
2022-08-14T00:07:23.058Z,101183.47
2022-08-14T00:09:55.813Z,101178.94
2022-08-14T00:12:39.491Z,101179.47
2022-08-14T00:15:18.460Z,101179.63
2022-08-14T00:17:52.929Z,101168.31
2022-08-14T00:20:35.939Z,101178.66
2022-08-14T00:23:16.765Z,101173.78
2022-08-14T00:25:53.894Z,101170.41
2022-08-14T00:28:35.345Z,101167.38
2022-08-14T00:31:05.310Z,101163.34
2022-08-14T00:33:50.442Z,101163.03
2022-08-14T00:36:36.955Z,101160.84
2022-08-14T00:39:09.487Z,101158.31
2022-08-14T00:41:39.004Z,101149.69
2022-08-14T00:44:08.265Z,101146.47
2022-08-14T00:46:38.548Z,101148.53
2022-08-14T00:49:11.552Z,101144.13
2022-08-14T00:51:44.273Z,101147.00
2022-08-14T00:54:21.229Z,101145.34
2022-08-14T00:56:55.445Z,101141.25
2022-08-14T00:59:26.026Z,101142.00
2022-08-14T01:02:00.583Z,101142.50
2022-08-14T01:04:51.165Z,101146.38
2022-08-14T01:07:21.992Z,101151.25
2022-08-14T01:09:54.881Z,101156.00
2022-08-14T01:12:27.029Z,101141.81
2022-08-14T01:14:59.242Z,101144.84
2022-08-14T01:17:49.875Z,101142.50
2022-08-14T01:20:39.872Z,101142.19
2022-08-14T01:23:18.873Z,101142.19
2022-08-14T01:25:51.859Z,101145.88
2022-08-14T01:28:46.650Z,101132.69
2022-08-14T01:31:14.343Z,101135.59
2022-08-14T01:35:16.110Z,101141.00
2022-08-14T01:36:39.253Z,101130.69
2022-08-14T01:39:18.701Z,101134.41
2022-08-14T01:42:01.426Z,101127.66
2022-08-14T01:44:33.721Z,101128.50
2022-08-14T01:47:16.487Z,101128.88
2022-08-14T01:49:59.873Z,101126.31
2022-08-14T01:52:59.293Z,101116.88
2022-08-14T01:55:23.315Z,101120.75
2022-08-14T01:58:01.595Z,101116.53
2022-08-14T02:00:39.564Z,101106.91
2022-08-14T02:03:07.606Z,101119.06
2022-08-14T02:05:38.624Z,101109.63
2022-08-14T02:08:09.577Z,101107.25
2022-08-14T02:10:46.239Z,101104.03
2022-08-14T02:13:16.832Z,101105.91
2022-08-14T02:15:45.806Z,101108.59
2022-08-14T02:18:16.478Z,101106.41
2022-08-14T02:20:47.588Z,101106.59
2022-08-14T02:23:16.591Z,101100.81
2022-08-14T02:25:59.604Z,101093.91
2022-08-14T02:28:59.349Z,101086.16
2022-08-14T02:31:42.516Z,101090.88
2022-08-14T02:34:32.716Z,101087.66
2022-08-14T02:37:12.198Z,101083.59
2022-08-14T02:39:46.075Z,101082.91
2022-08-14T02:42:23.626Z,101077.00
2022-08-14T02:45:06.612Z,101088.13
2022-08-14T02:47:34.307Z,101090.00
2022-08-14T02:50:07.330Z,101094.56
2022-08-14T02:53:07.399Z,101088.78
2022-08-14T02:55:23.570Z,101085.59
2022-08-14T02:57:58.147Z,101084.91
2022-08-14T03:00:33.175Z,101084.38
2022-08-14T03:03:07.611Z,101078.47
2022-08-14T03:05:41.339Z,101074.94
2022-08-14T03:08:16.007Z,101069.69
2022-08-14T03:10:49.118Z,101075.28
2022-08-14T03:13:21.628Z,101073.59
2022-08-14T03:15:57.840Z,101069.19
2022-08-14T03:18:30.896Z,101074.75
2022-08-14T03:21:02.594Z,101068.84
2022-08-14T03:23:37.815Z,101065.47
2022-08-14T03:26:08.742Z,101067.16
2022-08-14T03:28:43.081Z,101069.19
2022-08-14T03:31:13.217Z,101061.09
2022-08-14T03:33:42.313Z,101063.09
2022-08-14T03:37:50.883Z,101048.94
2022-08-14T03:39:11.889Z,101056.50
2022-08-14T03:41:54.120Z,101055.66
2022-08-14T03:45:20.111Z,101050.44
2022-08-14T03:47:11.727Z,101061.56
2022-08-14T03:49:42.315Z,101055.47
2022-08-14T03:52:38.453Z,101056.66
2022-08-14T03:54:59.332Z,101044.50
2022-08-14T03:57:30.648Z,101047.53
2022-08-14T03:59:59.854Z,101051.38
2022-08-14T04:02:33.350Z,101045.16
2022-08-14T04:05:11.759Z,101036.22
2022-08-14T04:07:50.043Z,101041.63
2022-08-14T04:10:31.589Z,101039.94
2022-08-14T04:13:06.218Z,101040.09
2022-08-14T04:15:56.208Z,101036.56
2022-08-14T04:18:22.027Z,101041.28
2022-08-14T04:20:54.619Z,101030.31
2022-08-14T04:23:29.719Z,101027.25
2022-08-14T04:26:02.403Z,101032.63
2022-08-14T04:29:07.861Z,101031.63
2022-08-14T04:32:59.092Z,101031.63
2022-08-14T04:34:07.848Z,101036.16
2022-08-14T04:36:55.647Z,101027.25
2022-08-14T04:39:46.530Z,101023.84
2022-08-14T04:42:32.941Z,101023.00
2022-08-14T04:45:01.302Z,101020.66
2022-08-14T04:47:47.627Z,101021.66
2022-08-14T04:50:26.193Z,101024.69
2022-08-14T04:53:05.500Z,101024.16
2022-08-14T04:55:33.771Z,101018.78
2022-08-14T04:58:03.693Z,101019.91
2022-08-14T05:00:34.166Z,101015.53
2022-08-14T05:03:03.568Z,101024.47
2022-08-14T05:05:35.249Z,101016.38
2022-08-14T05:08:32.292Z,101015.34
2022-08-14T05:11:03.111Z,101011.31
2022-08-14T05:13:53.228Z,101016.00
2022-08-14T05:16:23.177Z,101016.00
2022-08-14T05:19:24.921Z,101010.13
2022-08-14T05:21:57.442Z,101014.38
2022-08-14T05:24:29.206Z,101016.41
2022-08-14T05:26:56.825Z,101007.00
2022-08-14T05:29:25.456Z,101000.28
2022-08-14T05:31:58.065Z,101000.28
2022-08-14T05:34:31.824Z,100996.75
2022-08-14T05:37:02.850Z,100992.19
2022-08-14T05:39:31.789Z,100991.69
2022-08-14T05:42:00.568Z,100987.13
2022-08-14T05:44:30.898Z,100986.97
2022-08-14T05:46:59.218Z,100987.50
2022-08-14T05:49:33.320Z,100987.50
2022-08-14T05:52:02.990Z,100993.91
2022-08-14T05:54:35.233Z,100980.44
2022-08-14T05:57:05.016Z,100975.91
2022-08-14T05:59:39.248Z,100976.25
2022-08-14T06:02:10.001Z,100979.97
2022-08-14T06:04:39.314Z,100984.19
2022-08-14T06:07:06.995Z,100969.84
2022-08-14T06:09:35.776Z,100980.81
2022-08-14T06:12:12.114Z,100971.03
2022-08-14T06:14:39.881Z,100975.59
2022-08-14T06:17:07.444Z,100977.78
2022-08-14T06:19:35.053Z,100969.84
2022-08-14T06:22:02.852Z,100968.31
2022-08-14T06:24:34.700Z,100968.66
2022-08-14T06:27:06.370Z,100964.97
2022-08-14T06:29:39.122Z,100962.28
2022-08-14T06:32:37.716Z,100967.69
2022-08-14T06:35:04.018Z,100953.50
2022-08-14T06:37:48.935Z,100958.38
2022-08-14T06:40:34.611Z,100957.03
2022-08-14T06:43:03.866Z,100954.81
2022-08-14T06:45:32.636Z,100954.81
2022-08-14T06:48:02.950Z,100950.13
2022-08-14T06:50:34.029Z,100945.38
2022-08-14T06:53:01.566Z,100944.53
2022-08-14T06:55:29.724Z,100939.63
2022-08-14T06:57:57.827Z,100943.50
2022-08-14T07:00:30.922Z,100940.63
2022-08-14T07:03:19.269Z,100935.06
2022-08-14T07:05:57.680Z,100936.56
2022-08-14T07:08:31.086Z,100939.75
2022-08-14T07:11:01.420Z,100941.09
2022-08-14T07:13:30.736Z,100937.03
2022-08-14T07:16:00.675Z,100928.22
2022-08-14T07:18:35.475Z,100939.69
2022-08-14T07:21:05.409Z,100943.19
2022-08-14T07:23:40.116Z,100944.31
2022-08-14T07:26:13.630Z,100944.09
2022-08-14T07:28:43.534Z,100939.00
2022-08-14T07:31:12.640Z,100933.78
2022-08-14T07:33:50.138Z,100932.09
2022-08-14T07:36:29.921Z,100935.75
2022-08-14T07:39:03.277Z,100928.59
2022-08-14T07:41:39.909Z,100923.91
2022-08-14T07:44:32.869Z,100927.06
2022-08-14T07:46:59.206Z,100921.09
2022-08-14T07:49:27.637Z,100922.91
2022-08-14T07:51:56.878Z,100920.19
2022-08-14T07:54:29.843Z,100925.16
2022-08-14T07:57:00.521Z,100913.44
2022-08-14T07:59:40.947Z,100912.09
2022-08-14T08:02:18.087Z,100912.97
2022-08-14T08:04:58.987Z,100906.63
2022-08-14T08:07:31.041Z,100915.72
2022-08-14T08:10:46.350Z,100909.47
2022-08-14T08:13:15.537Z,100909.44
2022-08-14T08:15:46.467Z,100910.13
2022-08-14T08:18:20.526Z,100908.91
2022-08-14T08:20:59.492Z,100910.63
2022-08-14T08:23:40.624Z,100899.22
2022-08-14T08:26:11.349Z,100911.44
2022-08-14T08:28:39.404Z,100898.28
2022-08-14T08:31:12.837Z,100915.03
2022-08-14T08:33:42.613Z,100898.06
2022-08-14T08:36:18.573Z,100897.78
2022-08-14T08:39:16.919Z,100899.81
2022-08-14T08:41:50.488Z,100892.56
2022-08-14T08:44:32.075Z,100890.69
2022-08-14T08:47:08.127Z,100883.84
2022-08-14T08:49:48.198Z,100883.25
2022-08-14T08:52:31.970Z,100889.19
2022-08-14T08:55:04.306Z,100883.72
2022-08-14T08:57:37.731Z,100879.97
2022-08-14T09:00:24.356Z,100887.13
2022-08-14T09:03:02.185Z,100882.47
2022-08-14T09:05:30.682Z,100892.81
2022-08-14T09:08:31.433Z,100887.41
2022-08-14T09:11:19.735Z,100886.94
2022-08-14T09:13:53.113Z,100880.31
2022-08-14T09:16:26.099Z,100879.81
2022-08-14T09:18:55.980Z,100875.03
2022-08-14T09:21:24.909Z,100871.66
2022-08-14T09:24:28.922Z,100872.72
2022-08-14T09:26:49.392Z,100869.56
2022-08-14T09:29:22.840Z,100866.25
2022-08-14T09:31:57.325Z,100863.97
2022-08-14T09:34:28.489Z,100857.63
2022-08-14T09:37:07.995Z,100866.41
2022-08-14T09:40:16.650Z,100864.06
2022-08-14T09:42:59.861Z,100856.44
2022-08-14T09:45:53.089Z,100855.09
2022-08-14T09:48:29.975Z,100849.91
2022-08-14T09:54:18.290Z,100847.97
2022-08-14T09:56:45.805Z,100849.00
2022-08-14T09:59:16.709Z,100840.00
2022-08-14T10:01:46.141Z,100837.81
2022-08-14T10:04:34.942Z,100841.75
2022-08-14T10:07:08.193Z,100836.75
2022-08-14T10:10:00.220Z,100832.56
2022-08-14T10:12:44.859Z,100823.97
2022-08-14T10:15:21.107Z,100824.28
2022-08-14T10:17:49.774Z,100822.41
2022-08-14T10:20:40.684Z,100822.06
2022-08-14T10:23:22.076Z,100822.28
2022-08-14T10:25:57.983Z,100823.84
2022-08-14T10:29:03.901Z,100822.63
2022-08-14T10:31:44.487Z,100814.38
2022-08-14T10:34:18.615Z,100810.38
2022-08-14T10:37:02.449Z,100803.66
2022-08-14T10:39:30.474Z,100809.34
2022-08-14T10:42:16.615Z,100796.22
2022-08-14T10:44:52.633Z,100787.63
2022-08-14T10:47:39.514Z,100789.63
2022-08-14T10:50:12.077Z,100782.41
2022-08-14T10:52:43.231Z,100773.72
2022-08-14T10:55:14.287Z,100776.63
2022-08-14T10:57:57.040Z,100771.72
2022-08-14T11:00:30.336Z,100764.03
2022-08-14T11:03:11.205Z,100769.56
2022-08-14T11:05:55.713Z,100767.25
2022-08-14T11:08:41.900Z,100759.59
2022-08-14T11:11:13.722Z,100757.66
2022-08-14T11:13:46.523Z,100750.00
2022-08-14T11:16:16.062Z,100749.81
2022-08-14T11:18:50.727Z,100741.00
2022-08-14T11:21:23.421Z,100744.28
2022-08-14T11:23:53.637Z,100736.34
2022-08-14T11:26:30.154Z,100737.03
2022-08-14T11:29:00.316Z,100730.22
2022-08-14T11:31:35.568Z,100728.03
2022-08-14T11:34:10.456Z,100736.38
2022-08-14T11:37:02.144Z,100722.06
2022-08-14T11:39:37.756Z,100715.22
2022-08-14T11:42:07.658Z,100711.50
2022-08-14T11:45:11.402Z,100708.94
2022-08-14T11:48:13.749Z,100711.38
2022-08-14T11:50:37.935Z,100712.97
2022-08-14T11:53:08.814Z,100710.78
2022-08-14T11:55:39.158Z,100711.09
2022-08-14T11:58:10.614Z,100698.00
2022-08-14T12:00:53.696Z,100706.25
2022-08-14T12:03:27.034Z,100706.84
2022-08-14T12:06:29.043Z,100699.16
2022-08-14T12:09:08.804Z,100688.53
2022-08-14T12:11:46.903Z,100679.47
2022-08-14T12:14:34.872Z,100692.31
2022-08-14T12:17:11.928Z,100682.44
2022-08-14T12:19:51.318Z,100669.88
2022-08-14T12:22:40.020Z,100673.28
2022-08-14T12:25:14.725Z,100665.22
2022-08-14T12:27:53.416Z,100665.28
2022-08-14T12:30:43.581Z,100663.69
2022-08-14T12:33:30.735Z,100656.31
2022-08-14T12:36:04.141Z,100666.06
2022-08-14T12:38:43.483Z,100657.06
2022-08-14T12:41:20.553Z,100651.56
2022-08-14T12:44:01.957Z,100638.41
2022-08-14T12:46:35.890Z,100644.41
2022-08-14T12:49:25.971Z,100635.94
2022-08-14T12:51:59.036Z,100631.31
2022-08-14T12:54:28.969Z,100627.78
2022-08-14T12:57:08.190Z,100632.75
2022-08-14T12:59:37.114Z,100627.66
2022-08-14T13:02:25.454Z,100623.25
2022-08-14T13:04:56.630Z,100630.44
2022-08-14T13:07:32.778Z,100617.56
2022-08-14T13:10:46.022Z,100620.44
2022-08-14T13:13:12.629Z,100623.66
2022-08-14T13:15:40.576Z,100626.81
2022-08-14T13:18:13.084Z,100621.72
2022-08-14T13:20:48.036Z,100622.72
2022-08-14T13:23:30.375Z,100622.41
2022-08-14T13:26:00.301Z,100606.97
2022-08-14T13:28:32.716Z,100604.44
2022-08-14T13:31:11.220Z,100603.06
2022-08-14T13:33:40.672Z,100603.63
2022-08-14T13:36:11.081Z,100592.03
2022-08-14T13:38:53.775Z,100589.28
2022-08-14T13:41:28.086Z,100593.66
2022-08-14T13:44:04.653Z,100590.78
2022-08-14T13:46:35.728Z,100585.97
2022-08-14T13:49:04.294Z,100574.16
2022-08-14T13:51:38.627Z,100578.03
2022-08-14T13:54:10.271Z,100583.72
2022-08-14T13:56:40.938Z,100576.38
2022-08-14T13:59:10.323Z,100573.97
2022-08-14T14:01:43.990Z,100558.66
2022-08-14T14:04:19.801Z,100554.13
2022-08-14T14:06:52.168Z,100556.66
2022-08-14T14:09:32.704Z,100553.09
2022-08-14T14:12:36.738Z,100539.31
2022-08-14T14:14:56.878Z,100551.72
2022-08-14T14:17:29.018Z,100550.56
2022-08-14T14:19:59.772Z,100541.09
2022-08-14T14:22:35.630Z,100545.22
2022-08-14T14:25:04.102Z,100550.50
2022-08-14T14:27:41.555Z,100537.34
2022-08-14T14:30:46.004Z,100538.78
2022-08-14T14:33:05.322Z,100529.16
2022-08-14T14:35:43.448Z,100530.78
2022-08-14T14:38:17.112Z,100525.81
2022-08-14T14:40:52.629Z,100522.50
2022-08-14T14:43:25.096Z,100517.53
2022-08-14T14:45:55.687Z,100511.19
2022-08-14T14:48:28.266Z,100512.84
2022-08-14T14:51:01.582Z,100509.78
2022-08-14T14:53:39.220Z,100502.91
2022-08-14T14:56:47.570Z,100505.09
2022-08-14T14:58:58.378Z,100503.16
2022-08-14T15:01:26.578Z,100499.31
2022-08-14T15:03:55.534Z,100497.88
2022-08-14T15:06:30.243Z,100502.28
2022-08-14T15:09:00.925Z,100499.53
2022-08-14T15:11:30.134Z,100498.44
2022-08-14T15:13:58.830Z,100495.38
2022-08-14T15:16:28.532Z,100489.03
2022-08-14T15:18:56.127Z,100494.53
2022-08-14T15:21:25.276Z,100496.72
2022-08-14T15:23:55.397Z,100488.22
2022-08-14T15:26:31.901Z,100484.06
2022-08-14T15:29:05.835Z,100489.88
2022-08-14T15:31:36.614Z,100486.59
2022-08-14T15:34:43.445Z,100487.41
2022-08-14T15:37:00.295Z,100478.28
2022-08-14T15:39:33.784Z,100485.97
2022-08-14T15:42:14.653Z,100474.41
2022-08-14T15:44:58.414Z,100480.72
2022-08-14T15:47:31.592Z,100470.78
2022-08-14T15:50:04.371Z,100475.88
2022-08-14T15:52:37.183Z,100473.03
2022-08-14T15:55:09.406Z,100473.28
2022-08-14T15:57:37.564Z,100478.41
2022-08-14T16:00:43.658Z,100473.63
2022-08-14T16:03:16.527Z,100475.97
2022-08-14T16:05:46.125Z,100466.25
2022-08-14T16:08:27.063Z,100468.91
2022-08-14T16:11:01.136Z,100465.22
2022-08-14T16:13:39.276Z,100468.16
2022-08-14T16:16:47.855Z,100456.75
2022-08-14T16:19:07.416Z,100459.84
2022-08-14T16:21:39.939Z,100452.59
2022-08-14T16:24:27.936Z,100451.94
2022-08-14T16:27:00.763Z,100461.34
2022-08-14T16:29:34.596Z,100463.06
2022-08-14T16:32:32.873Z,100469.19
2022-08-14T16:34:54.963Z,100472.00
2022-08-14T16:37:30.540Z,100471.16
2022-08-14T16:40:00.728Z,100465.16
2022-08-14T16:42:39.343Z,100460.25
2022-08-14T16:45:18.744Z,100449.88
2022-08-14T16:47:47.845Z,100459.19
2022-08-14T16:50:40.467Z,100455.19
2022-08-14T16:53:07.361Z,100458.59
2022-08-14T16:55:53.491Z,100450.47
2022-08-14T16:58:29.859Z,100444.88
2022-08-14T17:01:16.270Z,100425.47
2022-08-14T17:04:04.654Z,100429.72
2022-08-14T17:06:51.142Z,100418.91
2022-08-14T17:09:32.974Z,100407.09
2022-08-14T17:12:28.608Z,100408.28
2022-08-14T17:15:11.168Z,100397.53
2022-08-14T17:17:38.786Z,100398.13
2022-08-14T17:20:53.902Z,100391.91
2022-08-14T17:23:00.185Z,100396.63
2022-08-14T17:25:30.112Z,100398.22
2022-08-14T17:28:50.632Z,100394.88
2022-08-14T17:31:07.014Z,100391.16
2022-08-14T17:36:25.365Z,100373.97
2022-08-14T17:39:06.702Z,100368.81
2022-08-14T17:41:43.580Z,100361.41
2022-08-14T17:44:14.639Z,100358.72
2022-08-14T17:46:55.199Z,100350.00
2022-08-14T17:49:40.419Z,100344.75
2022-08-14T17:52:33.873Z,100345.63
2022-08-14T17:55:05.329Z,100349.34
2022-08-14T17:57:35.195Z,100351.13
2022-08-14T18:00:13.184Z,100348.66
2022-08-14T18:02:50.371Z,100348.53
2022-08-14T18:05:23.185Z,100349.47
2022-08-14T18:08:31.406Z,100347.81
2022-08-14T18:10:55.006Z,100349.00
2022-08-14T18:13:49.840Z,100345.09
2022-08-14T18:16:20.553Z,100351.03
2022-08-14T18:18:51.122Z,100344.50
2022-08-14T18:21:39.879Z,100353.06
2022-08-14T18:24:20.411Z,100340.34
2022-08-14T18:27:22.846Z,100339.16
2022-08-14T18:29:55.724Z,100347.63
2022-08-14T18:32:32.666Z,100362.72
2022-08-14T18:35:11.030Z,100383.38
2022-08-14T18:37:42.262Z,100382.47
2022-08-14T18:40:34.533Z,100381.72
2022-08-14T18:43:03.905Z,100382.06
2022-08-14T18:45:33.948Z,100387.78
2022-08-14T18:48:18.567Z,100393.47
2022-08-14T18:50:52.582Z,100399.25
2022-08-14T18:53:24.898Z,100406.53
2022-08-14T18:56:09.842Z,100393.56
2022-08-14T18:58:59.009Z,100402.22
2022-08-14T19:01:33.281Z,100396.28
2022-08-14T19:04:02.303Z,100388.91
2022-08-14T19:06:40.303Z,100389.28
2022-08-14T19:09:08.895Z,100387.16
2022-08-14T19:11:37.603Z,100392.00
2022-08-14T19:14:07.026Z,100389.28
2022-08-14T19:16:37.230Z,100384.53
2022-08-14T19:19:13.164Z,100378.56
2022-08-14T19:22:01.963Z,100386.47
2022-08-14T19:24:43.941Z,100393.47
2022-08-14T19:27:24.773Z,100396.50
2022-08-14T19:30:20.081Z,100400.66
2022-08-14T19:32:53.081Z,100405.97
2022-08-14T19:35:55.100Z,100410.31
2022-08-14T19:38:47.859Z,100411.91
2022-08-14T19:41:29.356Z,100407.16
2022-08-14T19:44:15.382Z,100408.53
2022-08-14T19:47:01.041Z,100417.22
2022-08-14T19:50:08.397Z,100411.69
2022-08-14T19:52:29.682Z,100398.72
2022-08-14T19:54:59.745Z,100389.78
2022-08-14T19:57:30.898Z,100395.53
2022-08-14T20:00:28.255Z,100410.47
2022-08-14T20:03:11.338Z,100407.94
2022-08-14T20:05:43.169Z,100410.28
2022-08-14T20:10:59.869Z,100405.66
2022-08-14T20:11:41.596Z,100400.09
2022-08-14T20:14:11.657Z,100397.63
2022-08-14T20:17:01.929Z,100390.59
2022-08-14T20:19:37.937Z,100396.06
2022-08-14T20:22:36.784Z,100389.84
2022-08-14T20:25:37.625Z,100385.28
2022-08-14T20:28:29.052Z,100383.91
2022-08-14T20:31:18.764Z,100373.28
2022-08-14T20:34:24.659Z,100376.66
2022-08-14T20:37:09.553Z,100377.56
2022-08-14T20:39:54.285Z,100377.16
2022-08-14T20:42:43.620Z,100376.59
2022-08-14T20:45:20.004Z,100379.22
2022-08-14T20:48:07.246Z,100377.75
2022-08-14T20:50:45.139Z,100364.97
2022-08-14T20:53:26.617Z,100366.69
2022-08-14T20:56:00.534Z,100361.63
2022-08-14T20:58:44.364Z,100355.41
2022-08-14T21:01:12.245Z,100348.94
2022-08-14T21:03:56.400Z,100353.41
2022-08-14T21:07:23.449Z,100346.09
2022-08-14T21:09:43.698Z,100352.03
2022-08-14T21:12:33.830Z,100352.50
2022-08-14T21:15:11.020Z,100350.00
2022-08-14T21:17:41.547Z,100358.00
2022-08-14T21:20:25.953Z,100352.78
2022-08-14T21:22:56.627Z,100346.13
2022-08-14T21:25:29.070Z,100355.53
2022-08-14T21:28:04.688Z,100351.16
2022-08-14T21:30:41.859Z,100351.34
2022-08-14T21:33:15.833Z,100351.53
2022-08-14T21:35:47.356Z,100344.22
2022-08-14T21:38:18.037Z,100345.72
2022-08-14T21:40:51.537Z,100345.28
2022-08-14T21:43:22.326Z,100348.84
2022-08-14T21:45:55.850Z,100346.78
2022-08-14T21:48:29.254Z,100339.66
2022-08-14T21:51:54.430Z,100336.72
2022-08-14T21:53:59.232Z,100334.84
2022-08-14T21:56:37.399Z,100331.34
2022-08-14T21:59:18.061Z,100332.59
2022-08-14T22:02:00.515Z,100336.13
2022-08-14T22:04:40.367Z,100349.91
2022-08-14T22:07:16.619Z,100354.75
2022-08-14T22:09:54.689Z,100370.63
2022-08-14T22:12:58.369Z,100378.16
2022-08-14T22:15:15.730Z,100400.31
2022-08-14T22:17:45.518Z,100424.78
2022-08-14T22:20:20.801Z,100428.16
2022-08-14T22:22:48.546Z,100440.50
2022-08-14T22:25:33.415Z,100429.16
2022-08-14T22:28:12.253Z,100419.56
2022-08-14T22:30:41.745Z,100418.09
2022-08-14T22:33:09.957Z,100431.28
2022-08-14T22:35:41.199Z,100419.38
2022-08-14T22:38:36.243Z,100420.41
2022-08-14T22:41:25.650Z,100422.03
2022-08-14T22:43:51.761Z,100409.06
2022-08-14T22:46:21.432Z,100401.31
2022-08-14T22:48:49.912Z,100383.56
2022-08-14T22:51:20.637Z,100372.91
2022-08-14T22:53:52.371Z,100372.84
2022-08-14T22:56:30.249Z,100367.41
2022-08-14T22:59:01.314Z,100367.19
2022-08-14T23:01:55.566Z,100367.41
2022-08-14T23:04:34.113Z,100359.84
2022-08-14T23:07:07.482Z,100360.88
2022-08-14T23:09:56.389Z,100355.03
2022-08-14T23:12:34.802Z,100351.06
2022-08-14T23:15:03.887Z,100349.78
2022-08-14T23:17:39.475Z,100355.41
2022-08-14T23:20:18.805Z,100358.31
2022-08-14T23:22:51.806Z,100351.03
2022-08-14T23:25:57.366Z,100346.00
2022-08-14T23:28:33.634Z,100342.63
2022-08-14T23:31:08.180Z,100327.34
2022-08-14T23:33:45.710Z,100314.59
2022-08-14T23:36:31.678Z,100308.75
2022-08-14T23:39:00.426Z,100299.31
2022-08-14T23:41:46.203Z,100289.69
2022-08-14T23:44:16.273Z,100265.53
2022-08-14T23:46:44.156Z,100257.19
2022-08-14T23:49:12.539Z,100254.91
2022-08-14T23:51:40.240Z,100239.66
2022-08-14T23:54:48.257Z,100231.69
2022-08-14T23:57:03.130Z,100230.00
2022-08-14T23:59:32.423Z,100226.28
